Mocoreta, Argentina
Current Conditions -  °F | °C
As of 1:00 AM on Wednesday 26 Nov 2014 (Local Time) from SUSO Reporting Station
Clear Clear  
Wind Chill: 18°   Ceiling: Unl
Heat Index: 18°   Visibility: 6mi
Dew Point: 16°   Wind: 9mph
Humidity: 88%   Direction: 140°SE
Pressure: 29.83"   Gusts: NA
Location:  30.63°S, 57.97°W
Report Text: SUSO 260400Z 14008KT CAVOK 18/16 Q1010
Loading
Personal Weather Stations






























Interactive Weather Map New forecast layout! Learn more

10-Day Weather Forecast

Advertisements
Track Severe Weather on mobile